sensor_id;sensor_type;location;lat;lon;timestamp;temperature;humidity
43520;DHT22;46848;51.980;5.918;2023-07-20T00:02:21;20.60;65.30
43520;DHT22;46848;51.980;5.918;2023-07-20T00:04:46;20.60;65.50
43520;DHT22;46848;51.980;5.918;2023-07-20T00:07:12;20.50;65.40
43520;DHT22;46848;51.980;5.918;2023-07-20T00:09:37;20.50;65.30
43520;DHT22;46848;51.980;5.918;2023-07-20T00:12:03;20.50;65.20
43520;DHT22;46848;51.980;5.918;2023-07-20T00:14:29;20.50;65.20
43520;DHT22;46848;51.980;5.918;2023-07-20T00:16:55;20.40;65.20
43520;DHT22;46848;51.980;5.918;2023-07-20T00:19:25;20.40;65.30
43520;DHT22;46848;51.980;5.918;2023-07-20T00:21:52;20.40;65.40
43520;DHT22;46848;51.980;5.918;2023-07-20T00:24:18;20.40;65.20
43520;DHT22;46848;51.980;5.918;2023-07-20T00:26:44;20.40;65.30
43520;DHT22;46848;51.980;5.918;2023-07-20T00:29:10;20.40;65.40
43520;DHT22;46848;51.980;5.918;2023-07-20T00:31:36;20.30;65.40
43520;DHT22;46848;51.980;5.918;2023-07-20T00:34:03;20.30;65.60
43520;DHT22;46848;51.980;5.918;2023-07-20T00:36:29;20.30;66.40
43520;DHT22;46848;51.980;5.918;2023-07-20T00:38:54;20.30;65.70
43520;DHT22;46848;51.980;5.918;2023-07-20T00:41:20;20.30;66.10
43520;DHT22;46848;51.980;5.918;2023-07-20T00:43:46;20.30;66.10
43520;DHT22;46848;51.980;5.918;2023-07-20T00:46:11;20.30;66.00
43520;DHT22;46848;51.980;5.918;2023-07-20T00:48:37;20.30;66.00
43520;DHT22;46848;51.980;5.918;2023-07-20T00:51:04;20.30;66.00
43520;DHT22;46848;51.980;5.918;2023-07-20T00:53:30;20.30;66.00
43520;DHT22;46848;51.980;5.918;2023-07-20T00:55:56;20.30;66.00
43520;DHT22;46848;51.980;5.918;2023-07-20T00:58:22;20.20;66.20
43520;DHT22;46848;51.980;5.918;2023-07-20T01:00:47;20.20;66.40
43520;DHT22;46848;51.980;5.918;2023-07-20T01:03:13;20.10;66.50
43520;DHT22;46848;51.980;5.918;2023-07-20T01:05:56;20.10;66.60
43520;DHT22;46848;51.980;5.918;2023-07-20T01:09:02;20.10;66.90
43520;DHT22;46848;51.980;5.918;2023-07-20T01:11:38;20.10;67.10
43520;DHT22;46848;51.980;5.918;2023-07-20T01:14:05;20.00;66.90
43520;DHT22;46848;51.980;5.918;2023-07-20T01:16:30;20.00;67.50
43520;DHT22;46848;51.980;5.918;2023-07-20T01:18:56;20.00;67.00
43520;DHT22;46848;51.980;5.918;2023-07-20T01:21:31;20.00;67.00
43520;DHT22;46848;51.980;5.918;2023-07-20T01:31:58;20.00;67.40
43520;DHT22;46848;51.980;5.918;2023-07-20T01:34:29;20.00;67.20
43520;DHT22;46848;51.980;5.918;2023-07-20T01:36:55;20.00;67.20
43520;DHT22;46848;51.980;5.918;2023-07-20T01:39:22;20.00;67.30
43520;DHT22;46848;51.980;5.918;2023-07-20T01:41:48;20.00;67.30
43520;DHT22;46848;51.980;5.918;2023-07-20T01:44:14;20.00;67.40
43520;DHT22;46848;51.980;5.918;2023-07-20T01:46:40;20.00;67.50
43520;DHT22;46848;51.980;5.918;2023-07-20T01:49:05;20.00;67.60
43520;DHT22;46848;51.980;5.918;2023-07-20T01:51:31;19.90;67.40
43520;DHT22;46848;51.980;5.918;2023-07-20T01:53:57;19.90;67.50
43520;DHT22;46848;51.980;5.918;2023-07-20T01:56:22;19.90;67.60
43520;DHT22;46848;51.980;5.918;2023-07-20T01:58:48;19.90;67.60
43520;DHT22;46848;51.980;5.918;2023-07-20T02:01:13;19.90;67.60
43520;DHT22;46848;51.980;5.918;2023-07-20T02:03:39;19.90;67.60
43520;DHT22;46848;51.980;5.918;2023-07-20T02:06:05;19.90;67.60
43520;DHT22;46848;51.980;5.918;2023-07-20T02:08:30;19.80;67.70
43520;DHT22;46848;51.980;5.918;2023-07-20T02:10:56;19.80;67.70
43520;DHT22;46848;51.980;5.918;2023-07-20T02:13:22;19.80;67.90
43520;DHT22;46848;51.980;5.918;2023-07-20T02:15:48;19.80;67.90
43520;DHT22;46848;51.980;5.918;2023-07-20T02:18:14;19.80;68.00
43520;DHT22;46848;51.980;5.918;2023-07-20T02:20:41;19.80;68.10
43520;DHT22;46848;51.980;5.918;2023-07-20T02:23:07;19.70;68.10
43520;DHT22;46848;51.980;5.918;2023-07-20T02:25:33;19.70;68.20
43520;DHT22;46848;51.980;5.918;2023-07-20T02:27:58;19.70;68.30
43520;DHT22;46848;51.980;5.918;2023-07-20T02:30:24;19.70;68.40
43520;DHT22;46848;51.980;5.918;2023-07-20T02:32:50;19.60;68.40
43520;DHT22;46848;51.980;5.918;2023-07-20T02:35:16;19.60;68.30
43520;DHT22;46848;51.980;5.918;2023-07-20T02:37:41;19.60;68.30
43520;DHT22;46848;51.980;5.918;2023-07-20T02:40:08;19.60;68.30
43520;DHT22;46848;51.980;5.918;2023-07-20T02:42:34;19.60;68.40
43520;DHT22;46848;51.980;5.918;2023-07-20T02:45:01;19.60;68.40
43520;DHT22;46848;51.980;5.918;2023-07-20T02:47:26;19.50;68.30
43520;DHT22;46848;51.980;5.918;2023-07-20T02:49:52;19.50;68.30
43520;DHT22;46848;51.980;5.918;2023-07-20T02:52:17;19.50;68.30
43520;DHT22;46848;51.980;5.918;2023-07-20T02:54:43;19.50;68.30
43520;DHT22;46848;51.980;5.918;2023-07-20T02:57:08;19.40;68.20
43520;DHT22;46848;51.980;5.918;2023-07-20T02:59:34;19.40;68.30
43520;DHT22;46848;51.980;5.918;2023-07-20T03:02:00;19.40;68.40
43520;DHT22;46848;51.980;5.918;2023-07-20T03:04:26;19.30;68.40
43520;DHT22;46848;51.980;5.918;2023-07-20T03:06:52;19.30;68.50
43520;DHT22;46848;51.980;5.918;2023-07-20T03:09:18;19.30;68.50
43520;DHT22;46848;51.980;5.918;2023-07-20T03:11:43;19.30;68.60
43520;DHT22;46848;51.980;5.918;2023-07-20T03:14:09;19.30;68.60
43520;DHT22;46848;51.980;5.918;2023-07-20T03:16:36;19.20;68.60
43520;DHT22;46848;51.980;5.918;2023-07-20T03:19:01;19.30;68.60
43520;DHT22;46848;51.980;5.918;2023-07-20T03:21:27;19.20;68.50
43520;DHT22;46848;51.980;5.918;2023-07-20T03:23:52;19.20;68.50
43520;DHT22;46848;51.980;5.918;2023-07-20T03:26:19;19.20;68.50
43520;DHT22;46848;51.980;5.918;2023-07-20T03:28:44;19.10;68.50
43520;DHT22;46848;51.980;5.918;2023-07-20T03:31:10;19.10;68.50
43520;DHT22;46848;51.980;5.918;2023-07-20T03:33:36;19.10;68.50
43520;DHT22;46848;51.980;5.918;2023-07-20T03:36:01;19.10;68.70
43520;DHT22;46848;51.980;5.918;2023-07-20T03:38:27;19.00;68.70
43520;DHT22;46848;51.980;5.918;2023-07-20T03:40:57;19.10;68.70
43520;DHT22;46848;51.980;5.918;2023-07-20T03:43:24;19.00;68.70
43520;DHT22;46848;51.980;5.918;2023-07-20T03:45:50;19.00;68.70
43520;DHT22;46848;51.980;5.918;2023-07-20T03:48:17;18.90;68.60
43520;DHT22;46848;51.980;5.918;2023-07-20T03:50:45;18.90;68.70
43520;DHT22;46848;51.980;5.918;2023-07-20T03:53:11;18.90;68.80
43520;DHT22;46848;51.980;5.918;2023-07-20T03:55:37;18.90;68.80
43520;DHT22;46848;51.980;5.918;2023-07-20T03:58:02;18.80;68.80
43520;DHT22;46848;51.980;5.918;2023-07-20T04:00:28;18.80;68.80
43520;DHT22;46848;51.980;5.918;2023-07-20T04:02:54;18.80;69.50
43520;DHT22;46848;51.980;5.918;2023-07-20T04:05:20;18.80;68.80
43520;DHT22;46848;51.980;5.918;2023-07-20T04:07:45;18.80;68.90
43520;DHT22;46848;51.980;5.918;2023-07-20T04:10:11;18.80;68.90
43520;DHT22;46848;51.980;5.918;2023-07-20T04:12:37;18.80;69.00
43520;DHT22;46848;51.980;5.918;2023-07-20T04:15:02;18.70;68.90
43520;DHT22;46848;51.980;5.918;2023-07-20T04:17:29;18.70;69.00
43520;DHT22;46848;51.980;5.918;2023-07-20T04:19:54;18.70;69.00
43520;DHT22;46848;51.980;5.918;2023-07-20T04:22:20;18.70;69.00
43520;DHT22;46848;51.980;5.918;2023-07-20T04:24:46;18.70;69.10
43520;DHT22;46848;51.980;5.918;2023-07-20T04:27:12;18.70;69.10
43520;DHT22;46848;51.980;5.918;2023-07-20T04:29:37;18.70;69.20
43520;DHT22;46848;51.980;5.918;2023-07-20T04:32:03;18.70;69.10
43520;DHT22;46848;51.980;5.918;2023-07-20T04:34:29;18.70;69.20
43520;DHT22;46848;51.980;5.918;2023-07-20T04:36:54;18.70;69.20
43520;DHT22;46848;51.980;5.918;2023-07-20T04:39:20;18.60;69.20
43520;DHT22;46848;51.980;5.918;2023-07-20T04:41:45;18.70;69.30
43520;DHT22;46848;51.980;5.918;2023-07-20T04:44:12;18.60;69.40
43520;DHT22;46848;51.980;5.918;2023-07-20T04:46:39;18.60;69.30
43520;DHT22;46848;51.980;5.918;2023-07-20T04:49:05;18.70;69.50
43520;DHT22;46848;51.980;5.918;2023-07-20T04:51:31;18.80;69.80
43520;DHT22;46848;51.980;5.918;2023-07-20T04:53:57;19.00;69.80
43520;DHT22;46848;51.980;5.918;2023-07-20T04:56:22;19.10;69.60
43520;DHT22;46848;51.980;5.918;2023-07-20T04:58:48;19.20;69.30
43520;DHT22;46848;51.980;5.918;2023-07-20T05:01:14;19.20;69.10
43520;DHT22;46848;51.980;5.918;2023-07-20T05:03:40;19.30;69.00
43520;DHT22;46848;51.980;5.918;2023-07-20T05:06:05;19.40;69.00
43520;DHT22;46848;51.980;5.918;2023-07-20T05:08:31;19.50;68.80
43520;DHT22;46848;51.980;5.918;2023-07-20T05:10:56;19.60;68.80
43520;DHT22;46848;51.980;5.918;2023-07-20T05:13:22;19.70;68.60
43520;DHT22;46848;51.980;5.918;2023-07-20T05:15:51;19.80;68.40
43520;DHT22;46848;51.980;5.918;2023-07-20T05:18:18;19.90;68.30
43520;DHT22;46848;51.980;5.918;2023-07-20T05:20:49;20.00;68.10
43520;DHT22;46848;51.980;5.918;2023-07-20T05:23:18;20.00;68.00
43520;DHT22;46848;51.980;5.918;2023-07-20T05:25:44;20.10;67.60
43520;DHT22;46848;51.980;5.918;2023-07-20T05:28:09;20.20;67.40
43520;DHT22;46848;51.980;5.918;2023-07-20T05:30:35;20.30;67.20
43520;DHT22;46848;51.980;5.918;2023-07-20T05:33:01;20.30;67.10
43520;DHT22;46848;51.980;5.918;2023-07-20T05:35:26;20.50;67.00
43520;DHT22;46848;51.980;5.918;2023-07-20T05:37:52;20.50;66.70
43520;DHT22;46848;51.980;5.918;2023-07-20T05:40:18;20.60;66.70
43520;DHT22;46848;51.980;5.918;2023-07-20T05:42:47;20.60;66.50
43520;DHT22;46848;51.980;5.918;2023-07-20T05:45:14;20.80;66.30
43520;DHT22;46848;51.980;5.918;2023-07-20T05:47:41;20.80;66.00
43520;DHT22;46848;51.980;5.918;2023-07-20T05:50:07;20.90;65.90
43520;DHT22;46848;51.980;5.918;2023-07-20T05:52:32;21.00;65.70
43520;DHT22;46848;51.980;5.918;2023-07-20T05:54:58;21.10;65.70
43520;DHT22;46848;51.980;5.918;2023-07-20T05:57:24;21.20;65.50
43520;DHT22;46848;51.980;5.918;2023-07-20T05:59:49;21.30;65.20
43520;DHT22;46848;51.980;5.918;2023-07-20T06:02:16;21.40;64.70
43520;DHT22;46848;51.980;5.918;2023-07-20T06:04:42;21.50;64.50
43520;DHT22;46848;51.980;5.918;2023-07-20T06:07:07;21.60;64.20
43520;DHT22;46848;51.980;5.918;2023-07-20T06:09:33;21.70;63.70
43520;DHT22;46848;51.980;5.918;2023-07-20T06:11:59;21.80;63.30
43520;DHT22;46848;51.980;5.918;2023-07-20T06:14:24;21.90;63.10
43520;DHT22;46848;51.980;5.918;2023-07-20T06:16:50;22.00;62.70
43520;DHT22;46848;51.980;5.918;2023-07-20T06:19:15;22.10;62.20
43520;DHT22;46848;51.980;5.918;2023-07-20T06:21:41;22.20;61.70
43520;DHT22;46848;51.980;5.918;2023-07-20T06:24:07;22.20;61.20
43520;DHT22;46848;51.980;5.918;2023-07-20T06:26:33;22.20;61.00
43520;DHT22;46848;51.980;5.918;2023-07-20T06:29:07;22.30;60.70
43520;DHT22;46848;51.980;5.918;2023-07-20T06:31:35;22.40;60.60
43520;DHT22;46848;51.980;5.918;2023-07-20T06:34:01;22.50;60.20
43520;DHT22;46848;51.980;5.918;2023-07-20T06:36:27;22.60;59.80
43520;DHT22;46848;51.980;5.918;2023-07-20T06:38:53;22.70;59.40
43520;DHT22;46848;51.980;5.918;2023-07-20T06:41:19;22.80;58.70
43520;DHT22;46848;51.980;5.918;2023-07-20T06:43:45;22.80;58.50
43520;DHT22;46848;51.980;5.918;2023-07-20T06:46:11;23.00;58.50
43520;DHT22;46848;51.980;5.918;2023-07-20T06:48:36;23.10;57.90
43520;DHT22;46848;51.980;5.918;2023-07-20T06:51:02;23.20;57.50
43520;DHT22;46848;51.980;5.918;2023-07-20T06:53:31;23.30;57.10
43520;DHT22;46848;51.980;5.918;2023-07-20T06:55:57;23.40;56.70
43520;DHT22;46848;51.980;5.918;2023-07-20T06:58:23;23.50;56.60
43520;DHT22;46848;51.980;5.918;2023-07-20T07:00:49;23.60;56.10
43520;DHT22;46848;51.980;5.918;2023-07-20T07:03:14;23.70;55.70
43520;DHT22;46848;51.980;5.918;2023-07-20T07:05:41;23.80;55.50
43520;DHT22;46848;51.980;5.918;2023-07-20T07:08:07;24.00;55.20
43520;DHT22;46848;51.980;5.918;2023-07-20T07:10:35;24.10;54.70
43520;DHT22;46848;51.980;5.918;2023-07-20T07:13:01;24.10;54.40
43520;DHT22;46848;51.980;5.918;2023-07-20T07:15:26;24.20;53.90
43520;DHT22;46848;51.980;5.918;2023-07-20T07:17:53;24.20;54.00
43520;DHT22;46848;51.980;5.918;2023-07-20T07:20:18;24.40;53.80
43520;DHT22;46848;51.980;5.918;2023-07-20T07:22:44;24.50;53.40
43520;DHT22;46848;51.980;5.918;2023-07-20T07:25:10;24.60;53.30
43520;DHT22;46848;51.980;5.918;2023-07-20T07:27:36;24.70;52.90
43520;DHT22;46848;51.980;5.918;2023-07-20T07:30:03;24.80;52.50
43520;DHT22;46848;51.980;5.918;2023-07-20T07:32:28;25.00;51.90
43520;DHT22;46848;51.980;5.918;2023-07-20T07:34:54;25.20;51.50
43520;DHT22;46848;51.980;5.918;2023-07-20T07:37:20;25.30;51.20
43520;DHT22;46848;51.980;5.918;2023-07-20T07:39:46;25.30;50.70
43520;DHT22;46848;51.980;5.918;2023-07-20T07:42:12;25.30;50.80
43520;DHT22;46848;51.980;5.918;2023-07-20T07:44:38;25.50;50.90
43520;DHT22;46848;51.980;5.918;2023-07-20T07:47:04;25.60;51.00
43520;DHT22;46848;51.980;5.918;2023-07-20T07:49:30;25.80;50.70
43520;DHT22;46848;51.980;5.918;2023-07-20T07:51:56;25.90;50.40
43520;DHT22;46848;51.980;5.918;2023-07-20T07:54:22;26.10;49.80
43520;DHT22;46848;51.980;5.918;2023-07-20T07:56:48;26.30;49.70
43520;DHT22;46848;51.980;5.918;2023-07-20T07:59:13;26.50;49.60
43520;DHT22;46848;51.980;5.918;2023-07-20T08:01:39;26.70;48.40
43520;DHT22;46848;51.980;5.918;2023-07-20T08:04:05;26.80;48.70
43520;DHT22;46848;51.980;5.918;2023-07-20T08:06:31;26.90;48.70
43520;DHT22;46848;51.980;5.918;2023-07-20T08:08:56;27.10;48.40
43520;DHT22;46848;51.980;5.918;2023-07-20T08:11:23;27.20;48.00
43520;DHT22;46848;51.980;5.918;2023-07-20T08:13:49;27.20;47.60
43520;DHT22;46848;51.980;5.918;2023-07-20T08:16:14;27.10;47.80
43520;DHT22;46848;51.980;5.918;2023-07-20T08:18:40;26.90;47.90
43520;DHT22;46848;51.980;5.918;2023-07-20T08:21:06;26.90;47.90
43520;DHT22;46848;51.980;5.918;2023-07-20T08:23:31;27.00;47.80
43520;DHT22;46848;51.980;5.918;2023-07-20T08:25:57;27.20;47.10
43520;DHT22;46848;51.980;5.918;2023-07-20T08:28:22;27.30;47.00
43520;DHT22;46848;51.980;5.918;2023-07-20T08:30:48;27.50;47.40
43520;DHT22;46848;51.980;5.918;2023-07-20T08:33:16;27.50;47.20
43520;DHT22;46848;51.980;5.918;2023-07-20T08:35:42;27.60;47.30
43520;DHT22;46848;51.980;5.918;2023-07-20T08:38:08;27.70;47.20
43520;DHT22;46848;51.980;5.918;2023-07-20T08:40:45;27.90;46.90
43520;DHT22;46848;51.980;5.918;2023-07-20T08:43:11;28.10;46.80
43520;DHT22;46848;51.980;5.918;2023-07-20T08:45:40;28.30;46.50
43520;DHT22;46848;51.980;5.918;2023-07-20T08:48:07;28.60;46.20
43520;DHT22;46848;51.980;5.918;2023-07-20T08:50:33;28.80;45.30
43520;DHT22;46848;51.980;5.918;2023-07-20T08:52:59;29.00;44.40
43520;DHT22;46848;51.980;5.918;2023-07-20T08:55:26;29.20;43.90
43520;DHT22;46848;51.980;5.918;2023-07-20T08:57:54;29.40;44.20
43520;DHT22;46848;51.980;5.918;2023-07-20T09:00:21;29.70;43.90
43520;DHT22;46848;51.980;5.918;2023-07-20T09:02:50;29.90;43.50
43520;DHT22;46848;51.980;5.918;2023-07-20T09:05:20;30.10;43.10
43520;DHT22;46848;51.980;5.918;2023-07-20T09:07:46;30.20;43.00
43520;DHT22;46848;51.980;5.918;2023-07-20T09:10:12;30.20;42.80
43520;DHT22;46848;51.980;5.918;2023-07-20T09:12:39;30.40;42.50
43520;DHT22;46848;51.980;5.918;2023-07-20T09:15:06;30.50;42.60
43520;DHT22;46848;51.980;5.918;2023-07-20T09:17:32;30.60;42.60
43520;DHT22;46848;51.980;5.918;2023-07-20T09:19:58;30.60;43.00
43520;DHT22;46848;51.980;5.918;2023-07-20T09:22:33;30.50;41.20
43520;DHT22;46848;51.980;5.918;2023-07-20T09:24:58;30.10;40.20
43520;DHT22;46848;51.980;5.918;2023-07-20T09:27:41;29.80;42.40
43520;DHT22;46848;51.980;5.918;2023-07-20T09:30:08;29.80;41.90
43520;DHT22;46848;51.980;5.918;2023-07-20T09:32:45;30.00;42.60
43520;DHT22;46848;51.980;5.918;2023-07-20T09:37:45;30.20;42.80
43520;DHT22;46848;51.980;5.918;2023-07-20T09:40:11;30.40;42.70
43520;DHT22;46848;51.980;5.918;2023-07-20T09:42:37;30.60;42.60
43520;DHT22;46848;51.980;5.918;2023-07-20T09:45:06;30.60;41.90
43520;DHT22;46848;51.980;5.918;2023-07-20T09:47:39;30.60;41.60
43520;DHT22;46848;51.980;5.918;2023-07-20T09:50:07;30.70;41.70
43520;DHT22;46848;51.980;5.918;2023-07-20T09:52:38;30.50;40.10
43520;DHT22;46848;51.980;5.918;2023-07-20T09:55:08;30.10;39.50
43520;DHT22;46848;51.980;5.918;2023-07-20T09:57:35;29.70;41.40
43520;DHT22;46848;51.980;5.918;2023-07-20T10:00:02;29.60;42.10
43520;DHT22;46848;51.980;5.918;2023-07-20T10:02:33;29.70;43.00
43520;DHT22;46848;51.980;5.918;2023-07-20T10:05:03;29.80;42.50
43520;DHT22;46848;51.980;5.918;2023-07-20T10:07:30;29.80;42.40
43520;DHT22;46848;51.980;5.918;2023-07-20T10:09:59;29.60;42.70
43520;DHT22;46848;51.980;5.918;2023-07-20T10:12:27;29.50;42.70
43520;DHT22;46848;51.980;5.918;2023-07-20T10:15:13;29.30;43.00
43520;DHT22;46848;51.980;5.918;2023-07-20T10:17:49;29.20;42.70
43520;DHT22;46848;51.980;5.918;2023-07-20T10:20:19;29.00;43.10
43520;DHT22;46848;51.980;5.918;2023-07-20T10:22:48;28.90;43.60
43520;DHT22;46848;51.980;5.918;2023-07-20T10:25:16;28.70;43.50
43520;DHT22;46848;51.980;5.918;2023-07-20T10:27:42;28.60;43.60
43520;DHT22;46848;51.980;5.918;2023-07-20T10:30:08;28.50;43.90
43520;DHT22;46848;51.980;5.918;2023-07-20T10:32:34;28.40;43.90
43520;DHT22;46848;51.980;5.918;2023-07-20T10:35:00;28.30;43.90
43520;DHT22;46848;51.980;5.918;2023-07-20T10:37:53;28.30;43.80
43520;DHT22;46848;51.980;5.918;2023-07-20T10:40:29;28.40;43.30
43520;DHT22;46848;51.980;5.918;2023-07-20T10:43:03;28.40;43.70
43520;DHT22;46848;51.980;5.918;2023-07-20T10:45:47;28.40;44.00
43520;DHT22;46848;51.980;5.918;2023-07-20T10:48:22;28.30;43.60
43520;DHT22;46848;51.980;5.918;2023-07-20T10:51:13;28.20;43.40
43520;DHT22;46848;51.980;5.918;2023-07-20T10:53:40;28.10;43.30
43520;DHT22;46848;51.980;5.918;2023-07-20T10:56:11;28.10;43.90
43520;DHT22;46848;51.980;5.918;2023-07-20T10:58:37;28.20;43.50
43520;DHT22;46848;51.980;5.918;2023-07-20T11:01:06;28.30;43.30
43520;DHT22;46848;51.980;5.918;2023-07-20T11:03:34;28.20;43.20
43520;DHT22;46848;51.980;5.918;2023-07-20T11:09:07;28.20;42.80
43520;DHT22;46848;51.980;5.918;2023-07-20T11:11:35;28.20;42.30
43520;DHT22;46848;51.980;5.918;2023-07-20T11:14:04;28.20;43.60
43520;DHT22;46848;51.980;5.918;2023-07-20T11:16:34;28.20;42.90
43520;DHT22;46848;51.980;5.918;2023-07-20T11:19:00;28.10;42.80
43520;DHT22;46848;51.980;5.918;2023-07-20T11:21:26;28.10;42.90
43520;DHT22;46848;51.980;5.918;2023-07-20T11:23:52;27.80;42.70
43520;DHT22;46848;51.980;5.918;2023-07-20T11:26:18;27.60;43.40
43520;DHT22;46848;51.980;5.918;2023-07-20T11:28:51;27.40;43.60
43520;DHT22;46848;51.980;5.918;2023-07-20T11:31:18;27.40;43.70
43520;DHT22;46848;51.980;5.918;2023-07-20T11:33:44;27.40;43.40
43520;DHT22;46848;51.980;5.918;2023-07-20T11:36:10;27.40;43.70
43520;DHT22;46848;51.980;5.918;2023-07-20T11:38:35;27.60;43.70
43520;DHT22;46848;51.980;5.918;2023-07-20T11:41:03;27.70;43.60
43520;DHT22;46848;51.980;5.918;2023-07-20T11:43:29;27.70;43.50
43520;DHT22;46848;51.980;5.918;2023-07-20T11:45:56;27.70;43.20
43520;DHT22;46848;51.980;5.918;2023-07-20T11:48:21;27.70;43.50
43520;DHT22;46848;51.980;5.918;2023-07-20T11:50:47;27.60;44.40
43520;DHT22;46848;51.980;5.918;2023-07-20T11:53:14;27.50;44.10
43520;DHT22;46848;51.980;5.918;2023-07-20T11:55:40;27.40;44.10
43520;DHT22;46848;51.980;5.918;2023-07-20T11:58:08;27.40;44.20
43520;DHT22;46848;51.980;5.918;2023-07-20T12:00:34;27.30;44.30
43520;DHT22;46848;51.980;5.918;2023-07-20T12:03:01;27.20;44.40
43520;DHT22;46848;51.980;5.918;2023-07-20T12:05:27;27.10;44.40
43520;DHT22;46848;51.980;5.918;2023-07-20T12:07:52;27.00;44.50
43520;DHT22;46848;51.980;5.918;2023-07-20T12:10:27;26.90;44.80
43520;DHT22;46848;51.980;5.918;2023-07-20T12:12:54;27.00;44.70
43520;DHT22;46848;51.980;5.918;2023-07-20T12:15:24;27.20;44.70
43520;DHT22;46848;51.980;5.918;2023-07-20T12:17:56;27.30;44.40
43520;DHT22;46848;51.980;5.918;2023-07-20T12:23:03;27.50;43.50
43520;DHT22;46848;51.980;5.918;2023-07-20T12:25:40;27.50;43.30
43520;DHT22;46848;51.980;5.918;2023-07-20T12:28:11;27.60;43.20
43520;DHT22;46848;51.980;5.918;2023-07-20T12:30:37;27.60;43.50
43520;DHT22;46848;51.980;5.918;2023-07-20T12:33:04;27.70;43.50
43520;DHT22;46848;51.980;5.918;2023-07-20T12:35:33;27.90;43.30
43520;DHT22;46848;51.980;5.918;2023-07-20T12:37:59;28.10;43.20
43520;DHT22;46848;51.980;5.918;2023-07-20T12:40:25;28.20;42.80
43520;DHT22;46848;51.980;5.918;2023-07-20T12:42:51;28.20;42.60
43520;DHT22;46848;51.980;5.918;2023-07-20T12:45:17;28.30;41.90
43520;DHT22;46848;51.980;5.918;2023-07-20T12:47:42;28.40;42.30
43520;DHT22;46848;51.980;5.918;2023-07-20T12:50:10;28.60;42.20
43520;DHT22;46848;51.980;5.918;2023-07-20T12:52:36;28.70;41.80
43520;DHT22;46848;51.980;5.918;2023-07-20T12:55:04;28.70;40.80
43520;DHT22;46848;51.980;5.918;2023-07-20T12:57:29;28.70;41.40
43520;DHT22;46848;51.980;5.918;2023-07-20T12:59:55;28.80;41.30
43520;DHT22;46848;51.980;5.918;2023-07-20T13:02:21;28.80;41.20
43520;DHT22;46848;51.980;5.918;2023-07-20T13:04:46;28.80;41.40
43520;DHT22;46848;51.980;5.918;2023-07-20T13:07:12;28.90;41.50
43520;DHT22;46848;51.980;5.918;2023-07-20T13:09:37;29.10;41.20
43520;DHT22;46848;51.980;5.918;2023-07-20T13:12:03;29.30;40.90
43520;DHT22;46848;51.980;5.918;2023-07-20T13:14:29;29.40;39.70
43520;DHT22;46848;51.980;5.918;2023-07-20T13:16:58;29.60;39.90
43520;DHT22;46848;51.980;5.918;2023-07-20T13:19:23;29.60;39.30
43520;DHT22;46848;51.980;5.918;2023-07-20T13:21:49;29.60;39.50
43520;DHT22;46848;51.980;5.918;2023-07-20T13:24:15;29.70;39.60
43520;DHT22;46848;51.980;5.918;2023-07-20T13:26:40;29.90;39.70
43520;DHT22;46848;51.980;5.918;2023-07-20T13:29:06;30.10;39.80
43520;DHT22;46848;51.980;5.918;2023-07-20T13:31:32;30.20;39.80
43520;DHT22;46848;51.980;5.918;2023-07-20T13:33:57;30.20;39.90
43520;DHT22;46848;51.980;5.918;2023-07-20T13:36:24;30.20;39.90
43520;DHT22;46848;51.980;5.918;2023-07-20T13:38:49;30.20;39.90
43520;DHT22;46848;51.980;5.918;2023-07-20T13:41:15;30.20;39.90
43520;DHT22;46848;51.980;5.918;2023-07-20T13:43:42;30.20;39.80
43520;DHT22;46848;51.980;5.918;2023-07-20T13:46:07;30.20;39.70
43520;DHT22;46848;51.980;5.918;2023-07-20T13:48:33;30.10;39.90
43520;DHT22;46848;51.980;5.918;2023-07-20T13:50:58;30.00;39.90
43520;DHT22;46848;51.980;5.918;2023-07-20T13:53:24;29.90;40.00
43520;DHT22;46848;51.980;5.918;2023-07-20T13:55:50;29.80;40.10
43520;DHT22;46848;51.980;5.918;2023-07-20T13:58:15;29.70;40.70
43520;DHT22;46848;51.980;5.918;2023-07-20T14:00:41;29.70;40.40
43520;DHT22;46848;51.980;5.918;2023-07-20T14:03:06;29.80;40.40
43520;DHT22;46848;51.980;5.918;2023-07-20T14:05:32;29.80;40.40
43520;DHT22;46848;51.980;5.918;2023-07-20T14:07:59;29.90;40.00
43520;DHT22;46848;51.980;5.918;2023-07-20T14:10:24;29.80;40.00
43520;DHT22;46848;51.980;5.918;2023-07-20T14:12:50;29.90;39.90
43520;DHT22;46848;51.980;5.918;2023-07-20T14:15:16;29.90;40.00
43520;DHT22;46848;51.980;5.918;2023-07-20T14:17:43;29.80;40.00
43520;DHT22;46848;51.980;5.918;2023-07-20T14:20:09;29.70;40.00
43520;DHT22;46848;51.980;5.918;2023-07-20T14:22:34;29.60;40.10
43520;DHT22;46848;51.980;5.918;2023-07-20T14:25:00;29.40;40.30
43520;DHT22;46848;51.980;5.918;2023-07-20T14:27:26;29.20;40.20
43520;DHT22;46848;51.980;5.918;2023-07-20T14:29:51;29.10;40.40
43520;DHT22;46848;51.980;5.918;2023-07-20T14:32:18;28.90;40.60
43520;DHT22;46848;51.980;5.918;2023-07-20T14:34:44;28.80;40.70
43520;DHT22;46848;51.980;5.918;2023-07-20T14:37:10;28.70;40.90
43520;DHT22;46848;51.980;5.918;2023-07-20T14:39:35;28.70;41.00
43520;DHT22;46848;51.980;5.918;2023-07-20T14:42:01;28.70;40.80
43520;DHT22;46848;51.980;5.918;2023-07-20T14:44:29;28.80;40.80
43520;DHT22;46848;51.980;5.918;2023-07-20T14:46:54;28.70;40.80
43520;DHT22;46848;51.980;5.918;2023-07-20T14:49:20;28.70;40.80
43520;DHT22;46848;51.980;5.918;2023-07-20T14:51:46;28.70;40.90
43520;DHT22;46848;51.980;5.918;2023-07-20T14:54:15;28.80;40.80
43520;DHT22;46848;51.980;5.918;2023-07-20T14:56:49;28.90;40.60
43520;DHT22;46848;51.980;5.918;2023-07-20T14:59:16;29.00;40.20
43520;DHT22;46848;51.980;5.918;2023-07-20T15:01:43;29.00;40.60
43520;DHT22;46848;51.980;5.918;2023-07-20T15:04:11;29.00;40.50
43520;DHT22;46848;51.980;5.918;2023-07-20T15:06:37;29.10;40.40
43520;DHT22;46848;51.980;5.918;2023-07-20T15:09:02;29.20;40.40
43520;DHT22;46848;51.980;5.918;2023-07-20T15:11:29;29.30;40.10
43520;DHT22;46848;51.980;5.918;2023-07-20T15:13:55;29.20;39.20
43520;DHT22;46848;51.980;5.918;2023-07-20T15:16:23;28.90;40.00
43520;DHT22;46848;51.980;5.918;2023-07-20T15:18:48;28.90;40.10
43520;DHT22;46848;51.980;5.918;2023-07-20T15:21:17;28.80;40.30
43520;DHT22;46848;51.980;5.918;2023-07-20T15:23:43;28.90;40.20
43520;DHT22;46848;51.980;5.918;2023-07-20T15:26:09;28.90;40.20
43520;DHT22;46848;51.980;5.918;2023-07-20T15:28:37;28.80;40.20
43520;DHT22;46848;51.980;5.918;2023-07-20T15:31:04;28.60;40.40
43520;DHT22;46848;51.980;5.918;2023-07-20T15:33:30;28.50;40.40
43520;DHT22;46848;51.980;5.918;2023-07-20T15:35:56;28.40;40.40
43520;DHT22;46848;51.980;5.918;2023-07-20T15:38:22;28.40;40.70
43520;DHT22;46848;51.980;5.918;2023-07-20T15:40:48;28.30;40.80
43520;DHT22;46848;51.980;5.918;2023-07-20T15:43:16;28.20;40.80
43520;DHT22;46848;51.980;5.918;2023-07-20T15:45:46;28.20;40.80